createdAt,value
2023-03-18T00:02:06.997Z,5.75
2023-03-18T00:04:37.867Z,4.28
2023-03-18T00:07:08.333Z,4.50
2023-03-18T00:09:41.843Z,5.60
2023-03-18T00:12:12.630Z,6.00
2023-03-18T00:14:43.773Z,5.22
2023-03-18T00:17:14.428Z,5.15
2023-03-18T00:19:44.806Z,7.78
2023-03-18T00:22:15.432Z,3.50
2023-03-18T00:24:49.192Z,5.57
2023-03-18T00:27:19.532Z,6.45
2023-03-18T00:29:49.966Z,6.80
2023-03-18T00:32:20.324Z,3.30
2023-03-18T00:34:52.099Z,4.15
2023-03-18T00:37:30.589Z,2.60
2023-03-18T00:40:07.873Z,4.63
2023-03-18T00:42:40.295Z,5.22
2023-03-18T00:45:13.672Z,5.43
2023-03-18T00:47:44.979Z,3.42
2023-03-18T00:50:15.898Z,3.75
2023-03-18T00:52:46.780Z,4.15
2023-03-18T00:55:20.555Z,4.70
2023-03-18T00:57:51.675Z,3.78
2023-03-18T01:00:22.467Z,6.78
2023-03-18T01:02:52.892Z,4.38
2023-03-18T01:05:23.492Z,4.97
2023-03-18T01:07:53.856Z,3.50
2023-03-18T01:10:27.420Z,5.00
2023-03-18T01:12:58.284Z,5.53
2023-03-18T01:15:29.739Z,5.55
2023-03-18T01:18:00.101Z,6.25
2023-03-18T01:20:31.326Z,5.40
2023-03-18T01:23:03.658Z,5.10
2023-03-18T01:25:36.714Z,6.90
2023-03-18T01:28:08.116Z,4.50
2023-03-18T01:30:38.904Z,5.65
2023-03-18T01:33:11.727Z,4.30
2023-03-18T01:35:42.291Z,5.80
2023-03-18T01:38:12.674Z,5.15
2023-03-18T01:40:45.563Z,2.97
2023-03-18T01:43:24.070Z,6.03
2023-03-18T01:45:58.512Z,4.93
2023-03-18T01:48:31.041Z,8.40
2023-03-18T01:51:11.876Z,6.43
2023-03-18T01:53:48.449Z,6.78
2023-03-18T01:56:22.960Z,7.53
2023-03-18T01:58:57.720Z,5.10
2023-03-18T02:01:32.307Z,8.52
2023-03-18T02:04:10.917Z,9.10
2023-03-18T02:06:44.333Z,6.65
2023-03-18T02:09:15.349Z,9.00
2023-03-18T02:14:27.326Z,8.35
2023-03-18T02:17:03.035Z,8.27
2023-03-18T02:19:50.190Z,9.00
2023-03-18T02:22:29.351Z,6.70
2023-03-18T02:25:19.455Z,12.27
2023-03-18T02:27:57.091Z,6.65
2023-03-18T02:30:32.198Z,10.02
2023-03-18T02:33:08.058Z,8.30
2023-03-18T02:35:39.733Z,10.32
2023-03-18T02:38:10.100Z,9.93
2023-03-18T02:40:42.984Z,7.13
2023-03-18T02:43:30.113Z,7.68
2023-03-18T02:46:18.370Z,6.95
2023-03-18T02:48:49.720Z,8.40
2023-03-18T02:51:21.060Z,7.07
2023-03-18T02:53:51.544Z,7.30
2023-03-18T02:56:21.959Z,11.75
2023-03-18T02:58:54.996Z,7.07
2023-03-18T03:01:25.950Z,13.13
2023-03-18T03:03:57.735Z,10.93
2023-03-18T03:06:29.034Z,9.43
2023-03-18T03:09:00.828Z,6.70
2023-03-18T03:11:32.504Z,6.43
2023-03-18T03:14:14.438Z,15.90
2023-03-18T03:16:46.890Z,6.90
2023-03-18T03:19:18.191Z,8.95
2023-03-18T03:21:49.618Z,6.03
2023-03-18T03:24:21.163Z,9.68
2023-03-18T03:26:52.001Z,7.20
2023-03-18T03:29:25.481Z,4.72
2023-03-18T03:31:56.233Z,7.70
2023-03-18T03:34:27.442Z,10.30
2023-03-18T03:36:58.302Z,12.05
2023-03-18T03:39:30.405Z,7.88
2023-03-18T03:42:01.235Z,10.15
2023-03-18T03:44:34.749Z,8.75
2023-03-18T03:47:05.597Z,12.13
2023-03-18T03:49:36.947Z,13.68
2023-03-18T03:52:08.739Z,11.43
2023-03-18T03:54:44.612Z,12.57
2023-03-18T03:57:15.908Z,9.75
2023-03-18T03:59:49.354Z,9.48
2023-03-18T04:02:24.004Z,7.88
2023-03-18T04:04:54.763Z,8.63
2023-03-18T04:07:30.244Z,6.28
2023-03-18T04:10:00.708Z,7.03
2023-03-18T04:12:31.081Z,7.38
2023-03-18T04:15:07.580Z,6.82
2023-03-18T04:17:38.544Z,5.38
2023-03-18T04:20:10.209Z,4.57
2023-03-18T04:22:41.794Z,3.10
2023-03-18T04:25:15.357Z,5.85
2023-03-18T04:27:46.065Z,6.07
2023-03-18T04:30:23.455Z,6.05
2023-03-18T04:33:14.456Z,4.05
2023-03-18T04:35:46.406Z,4.82
2023-03-18T04:38:18.443Z,7.00
2023-03-18T04:40:50.883Z,2.42
2023-03-18T04:43:21.469Z,5.30
2023-03-18T04:45:56.745Z,4.57
2023-03-18T04:48:27.314Z,2.92
2023-03-18T04:51:01.112Z,5.55
2023-03-18T04:53:34.059Z,4.80
2023-03-18T04:56:05.244Z,3.40
2023-03-18T04:58:45.281Z,5.72
2023-03-18T05:01:24.500Z,2.65
2023-03-18T05:03:55.589Z,2.45
2023-03-18T05:06:34.539Z,5.15
2023-03-18T05:09:10.075Z,2.72
2023-03-18T05:11:40.781Z,3.00
2023-03-18T05:14:18.515Z,4.15
2023-03-18T05:16:53.891Z,1.05
2023-03-18T05:19:25.423Z,5.72
2023-03-18T05:22:24.173Z,5.30
2023-03-18T05:25:06.905Z,5.18
2023-03-18T05:27:37.539Z,2.17
2023-03-18T05:32:56.363Z,7.25
2023-03-18T05:35:40.609Z,6.85
2023-03-18T05:38:11.069Z,5.85
2023-03-18T05:40:41.620Z,4.35
2023-03-18T05:43:20.258Z,5.65
2023-03-18T05:45:57.963Z,3.17
2023-03-18T05:48:47.411Z,5.20
2023-03-18T05:51:18.297Z,5.18
2023-03-18T05:53:49.526Z,1.95
2023-03-18T05:56:27.441Z,2.03
2023-03-18T05:59:02.033Z,3.88
2023-03-18T06:01:55.722Z,2.85
2023-03-18T06:04:29.390Z,2.85
2023-03-18T06:07:01.325Z,5.80
2023-03-18T06:09:33.446Z,4.40
2023-03-18T06:12:03.807Z,2.15
2023-03-18T06:14:34.321Z,4.03
2023-03-18T06:17:06.413Z,2.15
2023-03-18T06:19:39.941Z,2.72
2023-03-18T06:22:12.109Z,3.10
2023-03-18T06:24:47.893Z,2.78
2023-03-18T06:27:20.167Z,4.13
2023-03-18T06:29:56.657Z,5.50
2023-03-18T06:32:28.266Z,2.90
2023-03-18T06:35:01.735Z,4.53
2023-03-18T06:37:34.053Z,2.75
2023-03-18T06:40:06.138Z,2.75
2023-03-18T06:42:36.818Z,3.65
2023-03-18T06:45:28.403Z,3.75
2023-03-18T06:48:08.832Z,4.72
2023-03-18T06:50:44.251Z,3.08
2023-03-18T06:53:24.358Z,3.15
2023-03-18T06:55:56.810Z,2.42
2023-03-18T06:58:30.691Z,2.97
2023-03-18T07:01:12.652Z,2.88
2023-03-18T07:03:45.966Z,1.85
2023-03-18T07:06:21.280Z,3.60
2023-03-18T07:08:51.669Z,4.28
2023-03-18T07:11:22.416Z,1.05
2023-03-18T07:13:53.331Z,2.33
2023-03-18T07:16:37.321Z,1.13
2023-03-18T07:19:07.942Z,3.03
2023-03-18T07:21:42.991Z,1.30
2023-03-18T07:24:14.401Z,2.22
2023-03-18T07:26:45.549Z,1.30
2023-03-18T07:29:15.919Z,2.20
2023-03-18T07:31:47.055Z,1.83
2023-03-18T07:34:19.648Z,2.22
2023-03-18T07:36:53.718Z,2.20
2023-03-18T07:39:26.050Z,3.80
2023-03-18T07:41:57.365Z,0.85
2023-03-18T07:44:33.638Z,2.35
2023-03-18T07:47:04.518Z,2.50
2023-03-18T07:49:35.022Z,3.90
2023-03-18T07:52:09.444Z,2.95
2023-03-18T07:54:40.547Z,8.32
2023-03-18T07:57:11.298Z,11.00
2023-03-18T07:59:42.036Z,11.50
2023-03-18T08:02:16.330Z,7.93
2023-03-18T08:04:47.532Z,6.38
2023-03-18T08:07:21.192Z,6.55
2023-03-18T08:09:51.618Z,8.73
2023-03-18T08:12:21.983Z,6.95
2023-03-18T08:14:52.600Z,5.85
2023-03-18T08:17:23.387Z,8.90
2023-03-18T08:19:53.782Z,5.43
2023-03-18T08:22:27.052Z,5.55
2023-03-18T08:24:58.277Z,5.82
2023-03-18T08:27:28.956Z,8.00
2023-03-18T08:30:01.082Z,3.67
2023-03-18T08:32:33.901Z,5.28
2023-03-18T08:35:05.271Z,7.20
2023-03-18T08:37:38.545Z,8.20
2023-03-18T08:40:10.706Z,4.90
2023-03-18T08:42:41.170Z,7.65
2023-03-18T08:45:13.299Z,7.28
2023-03-18T08:47:44.290Z,6.28
2023-03-18T08:50:15.808Z,5.90
2023-03-18T08:52:48.785Z,6.60
2023-03-18T08:55:21.506Z,6.22
2023-03-18T08:57:53.495Z,4.43
2023-03-18T09:00:24.455Z,6.88
2023-03-18T09:02:55.194Z,7.20
2023-03-18T09:05:25.930Z,5.85
2023-03-18T09:07:58.917Z,5.50
2023-03-18T09:10:30.746Z,6.20
2023-03-18T09:13:01.472Z,4.60
2023-03-18T09:15:32.171Z,5.78
2023-03-18T09:18:11.522Z,6.00
2023-03-18T09:20:42.392Z,7.80
2023-03-18T09:23:18.372Z,4.38
2023-03-18T09:25:50.334Z,6.68
2023-03-18T09:28:20.765Z,8.40
2023-03-18T09:30:51.307Z,6.55
2023-03-18T09:33:22.370Z,2.22
2023-03-18T09:35:52.822Z,6.20
2023-03-18T09:38:25.950Z,5.60
2023-03-18T09:41:10.009Z,5.93
2023-03-18T09:43:55.006Z,10.48
2023-03-18T09:46:33.222Z,4.75
2023-03-18T09:49:16.746Z,7.20
2023-03-18T09:52:00.473Z,4.15
2023-03-18T09:54:41.258Z,5.80
2023-03-18T09:57:23.524Z,3.92
2023-03-18T09:59:57.890Z,4.65
2023-03-18T10:02:35.320Z,7.00
2023-03-18T10:05:11.088Z,4.32
2023-03-18T10:07:45.663Z,5.25
2023-03-18T10:10:26.865Z,8.10
2023-03-18T10:13:05.676Z,3.97
2023-03-18T10:15:41.783Z,5.78
2023-03-18T10:18:17.108Z,5.03
2023-03-18T10:20:59.559Z,4.65
2023-03-18T10:23:40.321Z,4.13
2023-03-18T10:26:20.403Z,3.33
2023-03-18T10:29:08.799Z,8.68
2023-03-18T10:31:51.114Z,5.18
2023-03-18T10:34:25.885Z,7.22
2023-03-18T10:37:05.664Z,5.50
2023-03-18T10:39:38.716Z,5.45
2023-03-18T10:42:25.798Z,6.57
2023-03-18T10:44:58.938Z,7.03
2023-03-18T10:47:33.761Z,5.72
2023-03-18T10:50:12.161Z,4.78
2023-03-18T10:52:50.000Z,5.68
2023-03-18T10:55:23.989Z,4.07
2023-03-18T10:57:57.024Z,6.78
2023-03-18T11:00:33.272Z,5.32
2023-03-18T11:03:04.364Z,4.47
2023-03-18T11:05:39.556Z,7.53
2023-03-18T11:08:12.114Z,5.03
2023-03-18T11:10:49.359Z,8.25
2023-03-18T11:13:25.187Z,8.85
2023-03-18T11:15:58.792Z,5.60
2023-03-18T11:18:33.275Z,7.35
2023-03-18T11:21:06.496Z,8.23
2023-03-18T11:23:56.150Z,7.18
2023-03-18T11:26:27.817Z,8.25
2023-03-18T11:29:02.120Z,11.00
2023-03-18T11:31:32.499Z,8.00
2023-03-18T11:34:03.467Z,11.10
2023-03-18T11:36:34.180Z,10.40
2023-03-18T11:39:09.156Z,9.35
2023-03-18T11:41:42.904Z,7.18
2023-03-18T11:44:20.818Z,5.40
2023-03-18T11:46:56.379Z,10.45
2023-03-18T11:49:31.437Z,7.43
2023-03-18T11:52:12.499Z,9.23
2023-03-18T11:55:01.068Z,7.10
2023-03-18T11:57:39.493Z,10.00
2023-03-18T12:00:25.426Z,9.98
2023-03-18T12:03:36.913Z,6.25
2023-03-18T12:06:50.452Z,8.20
2023-03-18T12:09:27.681Z,7.30
2023-03-18T12:12:12.421Z,10.00
2023-03-18T12:14:49.883Z,6.22
2023-03-18T12:17:35.762Z,7.07
2023-03-18T12:20:45.357Z,9.45
2023-03-18T12:23:38.992Z,8.25
2023-03-18T12:26:12.368Z,10.27
2023-03-18T12:28:56.435Z,9.93
2023-03-18T12:31:53.387Z,7.03
2023-03-18T12:34:41.424Z,7.88
2023-03-18T12:37:25.726Z,11.85
2023-03-18T12:40:19.631Z,11.90
2023-03-18T12:43:06.176Z,7.68
2023-03-18T12:45:40.786Z,11.18
2023-03-18T12:50:52.330Z,7.28
2023-03-18T12:53:34.695Z,10.23
2023-03-18T12:56:11.962Z,10.80
2023-03-18T12:58:56.982Z,5.00
2023-03-18T13:01:35.083Z,7.05
2023-03-18T13:06:44.521Z,7.03
2023-03-18T13:09:28.377Z,9.52
2023-03-18T13:12:07.714Z,7.13
2023-03-18T13:14:48.403Z,6.18
2023-03-18T13:17:27.016Z,5.95
2023-03-18T13:20:02.144Z,6.68
2023-03-18T13:23:14.099Z,2.72
2023-03-18T13:25:54.331Z,4.05
2023-03-18T13:28:37.881Z,1.90
2023-03-18T13:31:20.176Z,5.55
2023-03-18T13:34:32.682Z,3.45
2023-03-18T13:37:44.823Z,1.75
2023-03-18T13:40:56.436Z,4.32
2023-03-18T13:43:29.548Z,2.92
2023-03-18T13:46:07.742Z,4.70
2023-03-18T13:48:41.105Z,6.10
2023-03-18T13:51:50.325Z,2.78
2023-03-18T13:54:23.302Z,2.30
2023-03-18T13:56:58.269Z,2.70
2023-03-18T13:59:51.263Z,1.80
2023-03-18T14:02:37.813Z,1.55
2023-03-18T14:05:42.653Z,3.28
2023-03-18T14:08:48.585Z,2.38
2023-03-18T14:11:50.487Z,6.90
2023-03-18T14:14:57.646Z,4.07
2023-03-18T14:17:48.942Z,2.63
2023-03-18T14:20:42.028Z,4.32
2023-03-18T14:23:45.224Z,3.83
2023-03-18T14:26:27.056Z,5.30
2023-03-18T14:29:00.015Z,4.72
2023-03-18T14:31:54.557Z,3.85
2023-03-18T14:34:30.680Z,5.35
2023-03-18T14:37:29.672Z,3.70
2023-03-18T14:40:09.022Z,2.30
2023-03-18T14:42:47.297Z,4.65
2023-03-18T14:45:34.556Z,7.80
2023-03-18T14:48:17.750Z,3.90
2023-03-18T14:50:52.079Z,5.38
2023-03-18T14:53:28.792Z,2.95
2023-03-18T14:56:01.739Z,3.53
2023-03-18T14:58:32.425Z,1.67
2023-03-18T15:01:09.188Z,2.35
2023-03-18T15:03:45.404Z,1.80
2023-03-18T15:06:23.200Z,1.15
2023-03-18T15:08:55.799Z,1.27
2023-03-18T15:11:26.670Z,2.63
2023-03-18T15:14:00.078Z,2.20
2023-03-18T15:16:33.105Z,2.20
2023-03-18T15:19:09.763Z,1.23
2023-03-18T15:21:40.562Z,3.83
2023-03-18T15:24:12.050Z,2.38
2023-03-18T15:26:44.299Z,1.83
2023-03-18T15:29:28.263Z,2.17
2023-03-18T15:32:13.210Z,6.20
2023-03-18T15:34:51.164Z,1.33
2023-03-18T15:37:40.295Z,1.83
2023-03-18T15:40:36.418Z,1.15
2023-03-18T15:43:16.967Z,0.88
2023-03-18T15:45:49.521Z,1.58
2023-03-18T15:48:26.969Z,3.05
2023-03-18T15:51:02.192Z,2.97
2023-03-18T15:53:44.966Z,2.88
2023-03-18T15:56:21.174Z,2.13
2023-03-18T15:59:00.874Z,4.38
2023-03-18T16:01:31.311Z,4.32
2023-03-18T16:04:02.515Z,1.20
2023-03-18T16:06:35.604Z,2.15
2023-03-18T16:09:17.259Z,2.83
2023-03-18T16:11:52.142Z,0.50
2023-03-18T16:14:26.179Z,2.03
2023-03-18T16:16:56.593Z,4.95
2023-03-18T16:19:28.771Z,3.90
2023-03-18T16:22:02.676Z,0.98
2023-03-18T16:24:33.158Z,1.60
2023-03-18T16:27:03.987Z,1.48
2023-03-18T16:29:37.686Z,3.40
2023-03-18T16:32:08.739Z,0.57
2023-03-18T16:34:39.875Z,1.75
2023-03-18T16:37:21.444Z,3.13
2023-03-18T16:39:51.788Z,1.15
2023-03-18T16:42:23.333Z,4.30
2023-03-18T16:44:54.702Z,1.52
2023-03-18T16:47:28.624Z,2.40
2023-03-18T16:50:00.199Z,2.20
2023-03-18T16:52:34.344Z,2.25
2023-03-18T16:55:06.144Z,2.38
2023-03-18T16:57:38.256Z,2.40
2023-03-18T17:00:19.513Z,1.70
2023-03-18T17:02:52.856Z,4.07
2023-03-18T17:05:24.009Z,1.30
2023-03-18T17:07:57.132Z,4.28
2023-03-18T17:10:29.380Z,1.85
2023-03-18T17:13:02.388Z,6.43
2023-03-18T17:15:35.266Z,3.53
2023-03-18T17:18:06.761Z,3.67
2023-03-18T17:20:37.179Z,3.63
2023-03-18T17:23:13.255Z,3.65
2023-03-18T17:25:48.917Z,3.92
2023-03-18T17:28:28.649Z,3.47
2023-03-18T17:31:00.034Z,5.45
2023-03-18T17:33:32.203Z,2.00
2023-03-18T17:36:08.154Z,2.10
2023-03-18T17:38:41.892Z,1.88
2023-03-18T17:41:21.991Z,5.53
2023-03-18T17:43:52.871Z,3.55
2023-03-18T17:46:23.361Z,5.68
2023-03-18T17:48:53.644Z,4.93
2023-03-18T17:51:27.449Z,3.33
2023-03-18T17:54:06.201Z,2.85
2023-03-18T17:56:38.119Z,4.53
2023-03-18T17:59:13.716Z,5.03
2023-03-18T18:01:44.683Z,3.90
2023-03-18T18:04:18.965Z,2.72
2023-03-18T18:06:51.302Z,6.07
2023-03-18T18:09:24.200Z,4.10
2023-03-18T18:11:54.871Z,3.70
2023-03-18T18:14:29.148Z,2.95
2023-03-18T18:16:59.649Z,4.05
2023-03-18T18:19:30.755Z,2.40
2023-03-18T18:22:03.715Z,3.03
2023-03-18T18:24:36.926Z,3.92
2023-03-18T18:27:07.734Z,3.10
2023-03-18T18:29:38.054Z,2.78
2023-03-18T18:32:09.133Z,4.32
2023-03-18T18:34:39.442Z,4.15
2023-03-18T18:37:09.750Z,4.80
2023-03-18T18:39:42.682Z,4.18
2023-03-18T18:42:12.923Z,6.90
2023-03-18T18:44:43.403Z,4.22
2023-03-18T18:47:21.175Z,4.32
2023-03-18T18:49:52.040Z,4.80
2023-03-18T18:52:22.550Z,4.05
2023-03-18T18:54:55.655Z,5.75
2023-03-18T18:57:28.718Z,4.65
2023-03-18T18:59:59.645Z,6.25
2023-03-18T19:02:35.052Z,6.40
2023-03-18T19:05:08.053Z,4.65
2023-03-18T19:07:39.606Z,5.22
2023-03-18T19:10:15.018Z,4.68
2023-03-18T19:12:45.582Z,7.32
2023-03-18T19:15:16.207Z,4.28
2023-03-18T19:17:46.747Z,7.57
2023-03-18T19:20:29.785Z,5.07
2023-03-18T19:23:00.055Z,7.28
2023-03-18T19:25:34.166Z,4.38
2023-03-18T19:28:04.804Z,5.72
2023-03-18T19:30:35.080Z,6.68
2023-03-18T19:33:05.652Z,6.68
2023-03-18T19:35:36.977Z,5.13
2023-03-18T19:38:08.389Z,3.30
2023-03-18T19:40:42.739Z,4.65
2023-03-18T19:43:19.466Z,3.70
2023-03-18T19:45:51.880Z,3.95
2023-03-18T19:48:28.573Z,2.78
2023-03-18T19:50:59.014Z,3.90
2023-03-18T19:53:30.779Z,3.30
2023-03-18T19:56:06.072Z,6.88
2023-03-18T19:58:36.789Z,4.95
2023-03-18T20:01:07.305Z,3.88
2023-03-18T20:03:38.806Z,5.03
2023-03-18T20:06:09.495Z,3.78
2023-03-18T20:08:40.126Z,3.88
2023-03-18T20:11:17.493Z,4.18
2023-03-18T20:13:47.991Z,7.30
2023-03-18T20:16:21.823Z,7.40
2023-03-18T20:18:52.136Z,7.32
2023-03-18T20:21:29.618Z,5.55
2023-03-18T20:24:05.961Z,4.30
2023-03-18T20:26:38.813Z,5.88
2023-03-18T20:29:20.001Z,6.20
2023-03-18T20:31:50.670Z,5.60
2023-03-18T20:34:21.075Z,6.10
2023-03-18T20:36:51.457Z,4.70
2023-03-18T20:39:24.576Z,7.10
2023-03-18T20:41:57.679Z,6.28
2023-03-18T20:44:27.965Z,8.88
2023-03-18T20:46:58.196Z,7.18
2023-03-18T20:49:28.499Z,6.78
2023-03-18T20:51:58.738Z,10.38
2023-03-18T20:54:32.923Z,8.05
2023-03-18T20:57:06.295Z,6.75
2023-03-18T20:59:36.597Z,8.20
2023-03-18T21:02:29.019Z,9.20
2023-03-18T21:04:59.710Z,8.20
2023-03-18T21:07:30.924Z,8.88
2023-03-18T21:10:01.400Z,8.68
2023-03-18T21:12:34.616Z,9.52
2023-03-18T21:15:04.932Z,8.23
2023-03-18T21:17:35.196Z,9.57
2023-03-18T21:20:21.110Z,5.55
2023-03-18T21:22:53.203Z,7.05
2023-03-18T21:25:25.785Z,6.10
2023-03-18T21:27:58.891Z,10.70
2023-03-18T21:30:29.333Z,6.28
2023-03-18T21:32:59.685Z,9.60
2023-03-18T21:35:31.254Z,7.75
2023-03-18T21:38:01.750Z,5.30
2023-03-18T21:40:32.297Z,7.82
2023-03-18T21:43:15.733Z,9.73
2023-03-18T21:45:50.684Z,5.55
2023-03-18T21:48:21.391Z,8.18
2023-03-18T21:50:52.423Z,6.78
2023-03-18T21:53:25.111Z,4.93
2023-03-18T21:55:58.451Z,9.68
2023-03-18T21:58:31.582Z,7.78
2023-03-18T22:01:03.308Z,6.05
2023-03-18T22:03:33.885Z,9.40
2023-03-18T22:06:05.014Z,6.75
2023-03-18T22:08:35.815Z,6.38
2023-03-18T22:11:09.251Z,10.55
2023-03-18T22:13:42.341Z,14.30
2023-03-18T22:16:15.670Z,7.78
2023-03-18T22:18:47.841Z,6.88
2023-03-18T22:21:26.218Z,10.57
2023-03-18T22:23:58.326Z,8.88
2023-03-18T22:26:29.200Z,10.05
2023-03-18T22:29:02.189Z,5.53
2023-03-18T22:31:34.516Z,6.10
2023-03-18T22:34:05.284Z,3.83
2023-03-18T22:36:35.866Z,7.07
2023-03-18T22:39:07.531Z,5.30
2023-03-18T22:41:38.669Z,6.90
2023-03-18T22:44:18.441Z,7.30
2023-03-18T22:46:48.986Z,5.25
2023-03-18T22:49:19.633Z,6.82
2023-03-18T22:51:50.401Z,5.75
2023-03-18T22:54:24.231Z,7.53
2023-03-18T22:56:56.892Z,6.43
2023-03-18T22:59:31.690Z,6.32
2023-03-18T23:02:02.268Z,6.07
2023-03-18T23:04:32.971Z,5.28
2023-03-18T23:07:03.302Z,6.13
2023-03-18T23:09:37.313Z,5.93
2023-03-18T23:12:11.237Z,8.70
2023-03-18T23:14:44.160Z,11.50
2023-03-18T23:17:19.438Z,8.25
2023-03-18T23:19:49.985Z,7.10
2023-03-18T23:22:26.654Z,7.65
2023-03-18T23:24:57.822Z,10.95
2023-03-18T23:27:29.582Z,6.55
2023-03-18T23:30:03.136Z,9.75
2023-03-18T23:32:35.415Z,11.02
2023-03-18T23:35:07.307Z,9.75
2023-03-18T23:37:38.625Z,9.18
2023-03-18T23:40:10.467Z,8.25
2023-03-18T23:42:41.147Z,11.32
2023-03-18T23:45:14.752Z,12.10
2023-03-18T23:47:45.081Z,14.65
2023-03-18T23:50:15.739Z,13.07
2023-03-18T23:52:46.336Z,8.90
2023-03-18T23:55:33.069Z,12.45
2023-03-18T23:58:04.409Z,10.57
